Time,TemperatureF,DewpointF,PressureIn,WindDirection,WindDirectionDegrees,WindSpeedMPH,WindSpeedGustMPH,Humidity,HourlyPrecipIn,Conditions,Clouds,dailyrainin,SolarRadiationWatts/m^2,SoftwareType,DateUTC
2013-06-30 00:00:00,61.0,58.0,-100.00,NW,315,2.0,-999.0,90,-99.99,,,-99.99,0.000000,,2013-06-30 04:00:00,
2013-06-30 00:43:00,61.0,58.0,-100.00,NW,315,2.0,-999.0,90,-99.99,,,-99.99,0.000000,,2013-06-30 04:43:00,
2013-06-30 00:53:00,61.0,58.0,-100.00,NW,315,2.0,-999.0,90,-99.99,,,-99.99,0.000000,,2013-06-30 04:53:00,
2013-06-30 01:00:00,60.0,58.0,-100.00,NW,315,1.0,-999.0,92,-99.99,,,-99.99,0.000000,,2013-06-30 05:00:00,
2013-06-30 01:34:00,60.0,58.0,-100.00,NW,315,1.0,-999.0,92,-99.99,,,-99.99,0.000000,,2013-06-30 05:34:00,
2013-06-30 01:43:00,60.0,58.0,-100.00,NW,315,1.0,-999.0,92,-99.99,,,-99.99,0.000000,,2013-06-30 05:43:00,
2013-06-30 01:53:00,60.0,58.0,-100.00,NW,315,1.0,-999.0,92,-99.99,,,-99.99,0.000000,,2013-06-30 05:53:00,
2013-06-30 02:00:00,60.0,58.0,-100.00,WSW,247,1.0,-999.0,94,-99.99,,,-99.99,0.000000,,2013-06-30 06:00:00,
2013-06-30 02:43:00,60.0,58.0,-100.00,WSW,247,1.0,-999.0,94,-99.99,,,-99.99,0.000000,,2013-06-30 06:43:00,
2013-06-30 02:53:00,60.0,58.0,-100.00,WSW,247,1.0,-999.0,94,-99.99,,,-99.99,0.000000,,2013-06-30 06:53:00,
2013-06-30 03:00:00,59.0,58.0,-100.00,West,270,2.0,-999.0,95,-99.99,,,-99.99,0.000000,,2013-06-30 07:00:00,
2013-06-30 03:44:00,59.0,58.0,-100.00,West,270,2.0,-999.0,95,-99.99,,,-99.99,0.000000,,2013-06-30 07:44:00,
2013-06-30 03:53:00,59.0,58.0,-100.00,West,270,2.0,-999.0,95,-99.99,,,-99.99,0.000000,,2013-06-30 07:53:00,
2013-06-30 04:00:00,60.0,58.0,-100.00,NW,315,1.0,-999.0,94,-99.99,,,-99.99,0.000000,,2013-06-30 08:00:00,
2013-06-30 04:42:00,60.0,58.0,-100.00,NW,315,1.0,-999.0,94,-99.99,,,-99.99,0.000000,,2013-06-30 08:42:00,
2013-06-30 04:53:00,60.0,58.0,-100.00,NW,315,1.0,-999.0,94,-99.99,,,-99.99,0.000000,,2013-06-30 08:53:00,
2013-06-30 05:00:00,60.0,59.0,-100.00,NW,315,1.0,-999.0,95,-99.99,,,-99.99,0.000000,,2013-06-30 09:00:00,
2013-06-30 05:43:00,60.0,59.0,-100.00,NW,315,1.0,-999.0,95,-99.99,,,-99.99,0.000000,,2013-06-30 09:43:00,
2013-06-30 05:53:00,60.0,59.0,-100.00,NW,315,1.0,-999.0,95,-99.99,,,-99.99,0.000000,,2013-06-30 09:53:00,
2013-06-30 06:00:00,60.0,58.0,-100.00,NW,315,3.0,-999.0,94,-99.99,,,-99.99,0.000000,,2013-06-30 10:00:00,
2013-06-30 06:34:00,60.0,58.0,-100.00,NW,315,3.0,-999.0,94,-99.99,,,-99.99,0.000000,,2013-06-30 10:34:00,
2013-06-30 06:43:00,60.0,58.0,-100.00,NW,315,3.0,-999.0,94,-99.99,,,-99.99,0.000000,,2013-06-30 10:43:00,
2013-06-30 06:53:00,60.0,58.0,-100.00,NW,315,3.0,-999.0,94,-99.99,,,-99.99,0.000000,,2013-06-30 10:53:00,
2013-06-30 07:00:00,60.0,58.0,-100.00,NNW,337,3.0,-999.0,95,-99.99,,,-99.99,37.119999,,2013-06-30 11:00:00,
2013-06-30 07:43:00,60.0,58.0,-100.00,NNW,337,3.0,-999.0,95,-99.99,,,-99.99,37.119999,,2013-06-30 11:43:00,
2013-06-30 07:53:00,60.0,58.0,-100.00,NNW,337,3.0,-999.0,95,-99.99,,,-99.99,37.119999,,2013-06-30 11:53:00,
2013-06-30 08:00:00,64.0,59.0,-100.00,NW,315,4.0,-999.0,84,-99.99,,,-99.99,129.919998,,2013-06-30 12:00:00,
2013-06-30 08:43:00,64.0,59.0,-100.00,NW,315,4.0,-999.0,84,-99.99,,,-99.99,129.919998,,2013-06-30 12:43:00,
2013-06-30 08:52:00,64.0,59.0,-100.00,NW,315,4.0,-999.0,84,-99.99,,,-99.99,129.919998,,2013-06-30 12:52:00,
2013-06-30 09:00:00,64.0,59.0,-100.00,WNW,292,5.0,-999.0,82,-99.99,,,-99.99,158.919998,,2013-06-30 13:00:00,
2013-06-30 09:44:00,64.0,59.0,-100.00,WNW,292,5.0,-999.0,82,-99.99,,,-99.99,158.919998,,2013-06-30 13:44:00,
2013-06-30 09:53:00,64.0,59.0,-100.00,WNW,292,5.0,-999.0,82,-99.99,,,-99.99,158.919998,,2013-06-30 13:53:00,
2013-06-30 10:00:00,68.0,60.0,-100.00,East,90,7.0,-999.0,74,-99.99,,,-99.99,273.760010,,2013-06-30 14:00:00,
2013-06-30 10:44:00,68.0,60.0,-100.00,East,90,7.0,-999.0,74,-99.99,,,-99.99,273.760010,,2013-06-30 14:44:00,
2013-06-30 10:52:00,68.0,60.0,-100.00,East,90,7.0,-999.0,74,-99.99,,,-99.99,273.760010,,2013-06-30 14:52:00,
2013-06-30 11:00:00,69.0,61.0,-100.00,NNE,22,9.0,-999.0,74,-99.99,,,-99.99,346.839996,,2013-06-30 15:00:00,
2013-06-30 11:44:00,69.0,61.0,-100.00,NNE,22,9.0,-999.0,74,-99.99,,,-99.99,346.839996,,2013-06-30 15:44:00,
2013-06-30 11:53:00,69.0,61.0,-100.00,NNE,22,9.0,-999.0,74,-99.99,,,-99.99,346.839996,,2013-06-30 15:53:00,
2013-06-30 12:00:00,71.0,61.0,-100.00,NNE,22,12.0,-999.0,70,-99.99,,,-99.99,460.519989,,2013-06-30 16:00:00,
2013-06-30 12:44:00,71.0,61.0,-100.00,NNE,22,12.0,-999.0,70,-99.99,,,-99.99,460.519989,,2013-06-30 16:44:00,
2013-06-30 12:53:00,71.0,61.0,-100.00,NNE,22,12.0,-999.0,70,-99.99,,,-99.99,460.519989,,2013-06-30 16:53:00,
2013-06-30 13:00:00,72.0,62.0,-100.00,NNE,22,11.0,-999.0,69,-99.99,,,-99.99,611.320007,,2013-06-30 17:00:00,
2013-06-30 13:43:00,72.0,62.0,-100.00,NNE,22,11.0,-999.0,69,-99.99,,,-99.99,611.320007,,2013-06-30 17:43:00,
2013-06-30 13:53:00,72.0,62.0,-100.00,NNE,22,11.0,-999.0,69,-99.99,,,-99.99,611.320007,,2013-06-30 17:53:00,
2013-06-30 14:00:00,75.0,63.0,-100.00,NNE,22,11.0,-999.0,68,-99.99,,,-99.99,864.200012,,2013-06-30 18:00:00,
2013-06-30 14:43:00,75.0,63.0,-100.00,NNE,22,11.0,-999.0,68,-99.99,,,-99.99,864.200012,,2013-06-30 18:43:00,
2013-06-30 14:53:00,75.0,63.0,-100.00,NNE,22,11.0,-999.0,68,-99.99,,,-99.99,864.200012,,2013-06-30 18:53:00,
2013-06-30 15:00:00,74.0,63.0,-100.00,NE,45,12.0,-999.0,67,-99.99,,,-99.99,832.880005,,2013-06-30 19:00:00,
2013-06-30 15:43:00,74.0,63.0,-100.00,NE,45,12.0,-999.0,67,-99.99,,,-99.99,832.880005,,2013-06-30 19:43:00,
2013-06-30 15:53:00,74.0,63.0,-100.00,NE,45,12.0,-999.0,67,-99.99,,,-99.99,832.880005,,2013-06-30 19:53:00,
2013-06-30 16:00:00,74.0,61.0,-100.00,NE,45,12.0,-999.0,65,-99.99,,,-99.99,803.880005,,2013-06-30 20:00:00,
2013-06-30 16:42:00,74.0,61.0,-100.00,NE,45,12.0,-999.0,65,-99.99,,,-99.99,803.880005,,2013-06-30 20:42:00,
2013-06-30 16:52:00,74.0,61.0,-100.00,NE,45,12.0,-999.0,65,-99.99,,,-99.99,803.880005,,2013-06-30 20:52:00,
2013-06-30 17:00:00,74.0,59.0,-100.00,NE,45,11.0,-999.0,59,-99.99,,,-99.99,697.159973,,2013-06-30 21:00:00,
2013-06-30 17:43:00,74.0,59.0,-100.00,NE,45,11.0,-999.0,59,-99.99,,,-99.99,697.159973,,2013-06-30 21:43:00,
2013-06-30 17:53:00,74.0,59.0,-100.00,NE,45,11.0,-999.0,59,-99.99,,,-99.99,697.159973,,2013-06-30 21:53:00,
2013-06-30 18:00:00,74.0,54.0,-100.00,NE,45,12.0,-999.0,50,-99.99,,,-99.99,552.159973,,2013-06-30 22:00:00,
2013-06-30 18:43:00,74.0,54.0,-100.00,NE,45,12.0,-999.0,50,-99.99,,,-99.99,552.159973,,2013-06-30 22:43:00,
2013-06-30 18:53:00,74.0,54.0,-100.00,NE,45,12.0,-999.0,50,-99.99,,,-99.99,552.159973,,2013-06-30 22:53:00,
2013-06-30 19:00:00,71.0,46.0,-100.00,NE,45,13.0,-999.0,40,-99.99,,,-99.99,383.959991,,2013-06-30 23:00:00,
2013-06-30 19:44:00,71.0,46.0,-100.00,NE,45,13.0,-999.0,40,-99.99,,,-99.99,383.959991,,2013-06-30 23:44:00,
2013-06-30 19:53:00,71.0,46.0,-100.00,NE,45,13.0,-999.0,40,-99.99,,,-99.99,383.959991,,2013-06-30 23:53:00,
2013-06-30 20:00:00,69.0,42.0,-100.00,NE,45,12.0,-999.0,37,-99.99,,,-99.99,223.880005,,2013-07-01 00:00:00,
2013-06-30 20:33:00,69.0,42.0,-100.00,NE,45,12.0,-999.0,37,-99.99,,,-99.99,223.880005,,2013-07-01 00:33:00,
2013-06-30 20:42:00,69.0,42.0,-100.00,NE,45,12.0,-999.0,37,-99.99,,,-99.99,223.880005,,2013-07-01 00:42:00,
2013-06-30 20:52:00,69.0,42.0,-100.00,NE,45,12.0,-999.0,37,-99.99,,,-99.99,223.880005,,2013-07-01 00:52:00,
2013-06-30 21:00:00,67.0,42.0,-100.00,NE,45,9.0,-999.0,40,-99.99,,,-99.99,64.959999,,2013-07-01 01:00:00,
2013-06-30 21:43:00,67.0,42.0,-100.00,NE,45,9.0,-999.0,40,-99.99,,,-99.99,64.959999,,2013-07-01 01:43:00,
2013-06-30 21:52:00,67.0,42.0,-100.00,NE,45,9.0,-999.0,40,-99.99,,,-99.99,64.959999,,2013-07-01 01:52:00,
2013-06-30 22:00:00,63.0,43.0,-100.00,NE,45,6.0,-999.0,48,-99.99,,,-99.99,3.480000,,2013-07-01 02:00:00,
2013-06-30 22:44:00,63.0,43.0,-100.00,NE,45,6.0,-999.0,48,-99.99,,,-99.99,3.480000,,2013-07-01 02:44:00,
2013-06-30 22:54:00,63.0,43.0,-100.00,NE,45,6.0,-999.0,48,-99.99,,,-99.99,3.480000,,2013-07-01 02:54:00,
2013-06-30 23:00:00,59.0,45.0,-100.00,ENE,67,3.0,-999.0,59,-99.99,,,-99.99,0.000000,,2013-07-01 03:00:00,
2013-06-30 23:43:00,59.0,45.0,-100.00,ENE,67,3.0,-999.0,59,-99.99,,,-99.99,0.000000,,2013-07-01 03:43:00,
2013-06-30 23:52:00,59.0,45.0,-100.00,ENE,67,3.0,-999.0,59,-99.99,,,-99.99,0.000000,,2013-07-01 03:52:00,